• Join FlightAware (Why Join?)
  • Login
  • US Flag 
01:54AM EST


 

Airport Tracker/Info


-or-


 

Live Flight TrackerFlight Track Log ✈ CTL22 ✈ 15-Jul-2013 ✈ KBKL - KGRR

Flight Track Log - Related Links

Times and Time Zones

All times are in EDT time to prevent confusion due to time zone crossing. See the CTL22 flight status page for this flight to view local times or setup timezone preferences in your user account.

Time Position Orientation Groundspeed Altitude Reporting Facility
EDT Latitude Longitude Course Direction KTS MPH feet Rate Location/Type
09:37PM 41.5686 -81.7156 322° Northwest 139 160 2,600  Level Cleveland Center
09:38PM 41.5850 -81.7658 294° West 126 145 3,900 960 Climbing Cleveland Center
09:39PM 41.6031 -81.8078 300° West 137 158 4,700 780 Climbing Cleveland Center
09:40PM 41.6236 -81.8525 302° West 134 154 5,500 600 Climbing Cleveland Center
09:41PM 41.6461 -81.8975 304° West 145 167 6,000 240 Climbing Cleveland Center
09:42PM 41.6642 -81.9533 293° West 155 178 6,100  Climbing Cleveland Center
09:43PM 41.7158 -81.9822 337° Northwest 178 205 6,100  Level Cleveland Center
09:44PM 41.7444 -82.0275 310° West 164 189 6,100  Level Cleveland Center
09:45PM 41.7667 -82.0781 301° West 158 182 6,100 -60 Level Cleveland Center
09:46PM 41.7889 -82.1344 298° West 163 188 6,000 -60 Descending Cleveland Center
09:47PM 41.8111 -82.1878 299° West 163 188 6,000  Level Cleveland Center
09:48PM 41.8375 -82.2414 303° West 163 188 6,000  Level Cleveland Center
09:49PM 41.8597 -82.2922 300° West 163 188 6,100  Climbing Cleveland Center
09:50PM 41.8778 -82.3289 303° West 164 189 6,000  Descending Cleveland Center
09:51PM 41.9000 -82.3825 299° West 166 191 6,100  Climbing Cleveland Center
09:52PM 41.9219 -82.4417 297° West 165 190 6,000 -60 Descending Cleveland Center
09:53PM 41.9417 -82.5036 293° West 165 190 6,000  Level Cleveland Center
09:54PM 41.9639 -82.5603 298° West 167 192 6,000  Level Cleveland Center
09:55PM 41.9856 -82.6225 295° West 166 191 6,000  Level Cleveland Center
09:56PM 42.0033 -82.6817 292° West 168 193 6,000  Level Cleveland Center
09:57PM 42.0192 -82.7269 295° West 169 194 6,000  Level Cleveland Center
09:58PM 42.0428 -82.7919 296° West 168 193 6,100  Climbing Cleveland Center
09:59PM 42.0567 -82.8400 291° West 167 192 6,000 -60 Descending Cleveland Center
10:00PM 42.0742 -82.8994 292° West 168 193 6,000  Level Cleveland Center
10:01PM 42.0956 -82.9672 293° West 164 189 6,000  Level Cleveland Center
10:03PM 42.1111 -83.0267 289° West 164 189 6,000  Level Cleveland Center
10:04PM 42.1328 -83.0864 296° West 164 189 6,100  Climbing Cleveland Center
10:04PM 42.1525 -83.1347 299° West 163 188 6,000 -60 Descending Cleveland Center
10:06PM 42.1681 -83.1914 290° West 162 186 6,000  Level Cleveland Center
10:07PM 42.1875 -83.2483 295° West 159 183 6,000  Level Cleveland Center
10:07PM 42.2050 -83.2967 296° West 154 177 6,000  Level Cleveland Center
10:09PM 42.2247 -83.3536 295° West 154 177 6,100  Climbing Cleveland Center
10:09PM 42.2400 -83.4019 300° West 159 183 6,100  Level Cleveland Center
10:11PM 42.2594 -83.4617 294° West 157 181 6,100 -60 Level Cleveland Center
10:11PM 42.2769 -83.5103 296° West 162 186 6,000 -60 Descending Cleveland Center
10:12PM 42.2925 -83.5614 292° West 159 183 6,000  Level Cleveland Center
10:13PM 42.3056 -83.6156 288° West 159 183 6,100  Climbing Cleveland Center
10:14PM 42.3228 -83.6725 292° West 162 186 6,000 -60 Descending Cleveland Center
10:15PM 42.3381 -83.7239 292° West 161 185 6,000  Level Cleveland Center
10:16PM 42.3575 -83.7781 296° West 163 188 6,100  Climbing Cleveland Center
10:17PM 42.3767 -83.8325 295° West 165 190 6,000 -60 Descending Cleveland Center
10:19PM 42.3942 -83.8941 291° West  Level FlightAware Approximate
10:23PM 42.4789 -84.1481 292° West 163 188 6,000  Level Chicago Center
10:24PM 42.4972 -84.2050 294° West 165 190 6,000  Level Chicago Center
10:25PM 42.5189 -84.2753 293° West 168 193 6,000  Level Chicago Center
10:26PM 42.5047 -84.2740 293° West  Level FlightAware Approximate
10:26PM 42.5392 -84.3322 296° West 169 194 6,000  Level Chicago Center
10:27PM 42.5211 -84.3279 293° West  Level FlightAware Approximate
10:27PM 42.5631 -84.3858 301° West 167 192 6,000  Level Chicago Center
10:28PM 42.5376 -84.3819 292° West  Level FlightAware Approximate
10:28PM 42.5839 -84.4433 296° West 169 194 6,000  Level Chicago Center
10:29PM 42.6006 -84.5042 290° West 173 199 6,000  Level Chicago Center
10:30PM 42.6189 -84.5622 293° West 170 196 6,000  Level Chicago Center
10:31PM 42.6381 -84.6217 294° West 172 198 6,000  Level Chicago Center
10:32PM 42.6572 -84.6811 294° West 172 198 6,000  Level Chicago Center
10:33PM 42.6739 -84.7419 290° West 173 199 6,000  Level Chicago Center
10:34PM 42.6989 -84.8128 296° West 173 199 6,000  Level Chicago Center
10:35PM 42.7147 -84.8719 290° West 171 197 6,000  Level Chicago Center
10:36PM 42.7344 -84.9283 295° West 167 192 6,000  Level Chicago Center
10:37PM 42.7414 -84.9883 279° West 163 188 6,000 -60 Level Chicago Center
10:38PM 42.7486 -85.0486 279° West 163 188 5,900 -780 Descending Chicago Center
10:39PM 42.7711 -85.1125 296° West 195 224 4,500 -1,380 Descending Chicago Center
10:40PM 42.8019 -85.1747 304° West 201 231 3,100 -960 Descending Chicago Center
10:41PM 42.8386 -85.2217 317° Northwest 193 222 2,600 -300 Descending Chicago Center
10:42PM 42.8797 -85.2272 354° North 153 176 2,500 -60 Descending Chicago Center
10:43PM 42.9281 -85.2444 345° North 150 173 2,500  Level Chicago Center
10:45PM 42.9114 -85.2878 242° Southwest 156 180 2,500 -120 Level Chicago Center
10:46PM 42.9003 -85.3422 254° West 152 175 2,300 -120 Descending Chicago Center
10:47PM 42.8925 -85.3992 259° West 153 176 2,300 -300 Level Chicago Center
10:48PM 42.8875 -85.4511 263° West 145 167 1,800 -720 Descending Chicago Center
10:49PM 42.8814 -85.5011 261° West 137 158 900 -900 Descending Chicago Center
10:51PM 42.8667 -85.5167 270° West  Level FlightAware Approximate